sensor_id;sensor_type;location;lat;lon;timestamp;P1;durP1;ratioP1;P2;durP2;ratioP2
35225;SDS011;21813;49.686;21.766;2023-06-19T00:02:04;23.38;;;12.32;;
35225;SDS011;21813;49.686;21.766;2023-06-19T00:04:29;12.73;;;10.80;;
35225;SDS011;21813;49.686;21.766;2023-06-19T00:06:56;16.88;;;11.63;;
35225;SDS011;21813;49.686;21.766;2023-06-19T00:09:21;13.68;;;11.82;;
35225;SDS011;21813;49.686;21.766;2023-06-19T00:11:48;15.27;;;12.18;;
35225;SDS011;21813;49.686;21.766;2023-06-19T00:14:13;16.40;;;11.63;;
35225;SDS011;21813;49.686;21.766;2023-06-19T00:16:41;19.55;;;12.05;;
35225;SDS011;21813;49.686;21.766;2023-06-19T00:19:06;18.35;;;12.13;;
35225;SDS011;21813;49.686;21.766;2023-06-19T00:21:34;17.00;;;11.38;;
35225;SDS011;21813;49.686;21.766;2023-06-19T00:24:00;18.70;;;12.15;;
35225;SDS011;21813;49.686;21.766;2023-06-19T00:26:26;15.55;;;12.13;;
35225;SDS011;21813;49.686;21.766;2023-06-19T00:28:52;14.52;;;11.50;;
35225;SDS011;21813;49.686;21.766;2023-06-19T00:31:33;19.10;;;12.48;;
35225;SDS011;21813;49.686;21.766;2023-06-19T00:34:03;16.10;;;12.52;;
35225;SDS011;21813;49.686;21.766;2023-06-19T00:36:29;15.90;;;12.07;;
35225;SDS011;21813;49.686;21.766;2023-06-19T00:38:56;14.20;;;11.85;;
35225;SDS011;21813;49.686;21.766;2023-06-19T00:41:22;16.20;;;12.82;;
35225;SDS011;21813;49.686;21.766;2023-06-19T00:44:09;13.82;;;11.63;;
35225;SDS011;21813;49.686;21.766;2023-06-19T00:46:36;17.45;;;12.93;;
35225;SDS011;21813;49.686;21.766;2023-06-19T00:49:06;12.63;;;9.15;;
35225;SDS011;21813;49.686;21.766;2023-06-19T00:51:32;16.83;;;12.65;;
35225;SDS011;21813;49.686;21.766;2023-06-19T00:53:59;16.60;;;13.10;;
35225;SDS011;21813;49.686;21.766;2023-06-19T00:56:25;19.38;;;14.00;;
35225;SDS011;21813;49.686;21.766;2023-06-19T00:58:52;24.30;;;14.57;;
35225;SDS011;21813;49.686;21.766;2023-06-19T01:01:19;18.55;;;14.82;;
35225;SDS011;21813;49.686;21.766;2023-06-19T01:03:48;19.30;;;14.43;;
35225;SDS011;21813;49.686;21.766;2023-06-19T01:06:15;19.52;;;14.27;;
35225;SDS011;21813;49.686;21.766;2023-06-19T01:08:54;18.02;;;13.85;;
35225;SDS011;21813;49.686;21.766;2023-06-19T01:11:24;18.80;;;14.13;;
35225;SDS011;21813;49.686;21.766;2023-06-19T01:16:40;16.00;;;13.48;;
35225;SDS011;21813;49.686;21.766;2023-06-19T01:19:09;16.90;;;13.48;;
35225;SDS011;21813;49.686;21.766;2023-06-19T01:24:23;27.42;;;13.55;;
35225;SDS011;21813;49.686;21.766;2023-06-19T01:26:49;41.63;;;14.65;;
35225;SDS011;21813;49.686;21.766;2023-06-19T01:29:16;18.33;;;14.45;;
35225;SDS011;21813;49.686;21.766;2023-06-19T01:31:52;16.50;;;13.00;;
35225;SDS011;21813;49.686;21.766;2023-06-19T01:34:19;16.33;;;13.20;;
35225;SDS011;21813;49.686;21.766;2023-06-19T01:36:47;18.50;;;12.75;;
35225;SDS011;21813;49.686;21.766;2023-06-19T01:39:16;16.33;;;13.00;;
35225;SDS011;21813;49.686;21.766;2023-06-19T01:41:44;18.48;;;12.68;;
35225;SDS011;21813;49.686;21.766;2023-06-19T01:45:10;17.15;;;13.85;;
35225;SDS011;21813;49.686;21.766;2023-06-19T01:47:36;18.67;;;13.55;;
35225;SDS011;21813;49.686;21.766;2023-06-19T01:50:04;17.45;;;13.13;;
35225;SDS011;21813;49.686;21.766;2023-06-19T01:52:30;21.23;;;14.35;;
35225;SDS011;21813;49.686;21.766;2023-06-19T01:54:58;30.02;;;14.05;;
35225;SDS011;21813;49.686;21.766;2023-06-19T01:57:23;32.75;;;13.48;;
35225;SDS011;21813;49.686;21.766;2023-06-19T01:59:53;27.88;;;12.25;;
35225;SDS011;21813;49.686;21.766;2023-06-19T02:02:18;32.05;;;12.80;;
35225;SDS011;21813;49.686;21.766;2023-06-19T02:04:45;30.42;;;12.95;;
35225;SDS011;21813;49.686;21.766;2023-06-19T02:07:11;39.33;;;11.52;;
35225;SDS011;21813;49.686;21.766;2023-06-19T02:09:37;17.75;;;10.82;;
35225;SDS011;21813;49.686;21.766;2023-06-19T02:12:09;12.40;;;10.05;;
35225;SDS011;21813;49.686;21.766;2023-06-19T02:14:36;13.57;;;9.25;;
35225;SDS011;21813;49.686;21.766;2023-06-19T02:17:02;9.18;;;8.38;;
35225;SDS011;21813;49.686;21.766;2023-06-19T02:19:28;10.65;;;9.55;;
35225;SDS011;21813;49.686;21.766;2023-06-19T02:21:54;11.40;;;10.25;;
35225;SDS011;21813;49.686;21.766;2023-06-19T02:24:21;10.68;;;9.57;;
35225;SDS011;21813;49.686;21.766;2023-06-19T02:26:47;9.95;;;8.95;;
35225;SDS011;21813;49.686;21.766;2023-06-19T02:29:15;10.32;;;9.23;;
35225;SDS011;21813;49.686;21.766;2023-06-19T02:31:41;12.18;;;10.35;;
35225;SDS011;21813;49.686;21.766;2023-06-19T02:34:08;10.32;;;9.30;;
35225;SDS011;21813;49.686;21.766;2023-06-19T02:36:34;10.07;;;9.02;;
35225;SDS011;21813;49.686;21.766;2023-06-19T02:39:05;10.45;;;8.45;;
35225;SDS011;21813;49.686;21.766;2023-06-19T02:41:31;10.77;;;9.70;;
35225;SDS011;21813;49.686;21.766;2023-06-19T02:43:58;10.50;;;9.40;;
35225;SDS011;21813;49.686;21.766;2023-06-19T02:46:24;10.60;;;9.55;;
35225;SDS011;21813;49.686;21.766;2023-06-19T02:48:50;10.02;;;9.02;;
35225;SDS011;21813;49.686;21.766;2023-06-19T02:51:15;11.13;;;9.00;;
35225;SDS011;21813;49.686;21.766;2023-06-19T02:53:42;10.50;;;9.35;;
35225;SDS011;21813;49.686;21.766;2023-06-19T02:56:09;13.43;;;9.63;;
35225;SDS011;21813;49.686;21.766;2023-06-19T02:58:38;10.88;;;9.07;;
35225;SDS011;21813;49.686;21.766;2023-06-19T03:01:29;10.90;;;9.80;;
35225;SDS011;21813;49.686;21.766;2023-06-19T03:03:56;10.40;;;8.70;;
35225;SDS011;21813;49.686;21.766;2023-06-19T03:06:22;11.63;;;9.70;;
35225;SDS011;21813;49.686;21.766;2023-06-19T03:08:48;10.85;;;9.30;;
35225;SDS011;21813;49.686;21.766;2023-06-19T03:11:14;14.05;;;10.88;;
35225;SDS011;21813;49.686;21.766;2023-06-19T03:13:49;13.05;;;9.40;;
35225;SDS011;21813;49.686;21.766;2023-06-19T03:16:17;10.60;;;9.43;;
35225;SDS011;21813;49.686;21.766;2023-06-19T03:18:44;9.88;;;8.88;;
35225;SDS011;21813;49.686;21.766;2023-06-19T03:21:13;10.90;;;9.75;;
35225;SDS011;21813;49.686;21.766;2023-06-19T03:23:41;14.30;;;9.52;;
35225;SDS011;21813;49.686;21.766;2023-06-19T03:26:07;12.45;;;10.20;;
35225;SDS011;21813;49.686;21.766;2023-06-19T03:28:36;13.15;;;9.68;;
35225;SDS011;21813;49.686;21.766;2023-06-19T03:31:02;13.20;;;11.02;;
35225;SDS011;21813;49.686;21.766;2023-06-19T03:33:47;12.57;;;9.73;;
35225;SDS011;21813;49.686;21.766;2023-06-19T03:36:15;11.98;;;10.52;;
35225;SDS011;21813;49.686;21.766;2023-06-19T03:38:41;12.57;;;10.20;;
35225;SDS011;21813;49.686;21.766;2023-06-19T03:41:06;14.68;;;11.45;;
35225;SDS011;21813;49.686;21.766;2023-06-19T03:43:34;11.98;;;9.02;;
35225;SDS011;21813;49.686;21.766;2023-06-19T03:45:59;12.27;;;10.63;;
35225;SDS011;21813;49.686;21.766;2023-06-19T03:48:25;10.73;;;9.63;;
35225;SDS011;21813;49.686;21.766;2023-06-19T03:50:51;12.35;;;9.82;;
35225;SDS011;21813;49.686;21.766;2023-06-19T03:53:19;17.27;;;10.07;;
35225;SDS011;21813;49.686;21.766;2023-06-19T03:55:45;11.85;;;9.90;;
35225;SDS011;21813;49.686;21.766;2023-06-19T04:00:53;11.40;;;10.20;;
35225;SDS011;21813;49.686;21.766;2023-06-19T04:03:29;13.60;;;9.98;;
35225;SDS011;21813;49.686;21.766;2023-06-19T04:05:54;12.38;;;9.55;;
35225;SDS011;21813;49.686;21.766;2023-06-19T04:08:21;10.82;;;9.57;;
35225;SDS011;21813;49.686;21.766;2023-06-19T04:10:47;10.60;;;8.63;;
35225;SDS011;21813;49.686;21.766;2023-06-19T04:13:13;10.07;;;9.00;;
35225;SDS011;21813;49.686;21.766;2023-06-19T04:15:39;13.45;;;9.70;;
35225;SDS011;21813;49.686;21.766;2023-06-19T04:18:05;8.90;;;8.00;;
35225;SDS011;21813;49.686;21.766;2023-06-19T04:20:39;10.00;;;9.00;;
35225;SDS011;21813;49.686;21.766;2023-06-19T04:23:27;11.98;;;8.85;;
35225;SDS011;21813;49.686;21.766;2023-06-19T04:25:59;9.80;;;8.57;;
35225;SDS011;21813;49.686;21.766;2023-06-19T04:31:00;9.98;;;8.45;;
35225;SDS011;21813;49.686;21.766;2023-06-19T04:33:30;9.38;;;7.20;;
35225;SDS011;21813;49.686;21.766;2023-06-19T04:35:56;10.77;;;8.45;;
35225;SDS011;21813;49.686;21.766;2023-06-19T04:38:28;13.65;;;8.50;;
35225;SDS011;21813;49.686;21.766;2023-06-19T04:40:54;13.32;;;8.90;;
35225;SDS011;21813;49.686;21.766;2023-06-19T04:43:32;11.25;;;8.30;;
35225;SDS011;21813;49.686;21.766;2023-06-19T04:46:07;9.23;;;8.15;;
35225;SDS011;21813;49.686;21.766;2023-06-19T04:48:34;8.70;;;7.70;;
35225;SDS011;21813;49.686;21.766;2023-06-19T04:51:02;9.05;;;8.15;;
35225;SDS011;21813;49.686;21.766;2023-06-19T04:53:47;8.65;;;7.85;;
35225;SDS011;21813;49.686;21.766;2023-06-19T04:56:16;9.00;;;8.10;;
35225;SDS011;21813;49.686;21.766;2023-06-19T04:58:50;12.65;;;8.50;;
35225;SDS011;21813;49.686;21.766;2023-06-19T05:01:16;8.40;;;7.60;;
35225;SDS011;21813;49.686;21.766;2023-06-19T05:03:44;9.13;;;8.07;;
35225;SDS011;21813;49.686;21.766;2023-06-19T05:06:38;10.43;;;8.68;;
35225;SDS011;21813;49.686;21.766;2023-06-19T05:09:05;10.77;;;8.63;;
35225;SDS011;21813;49.686;21.766;2023-06-19T05:11:31;11.88;;;9.82;;
35225;SDS011;21813;49.686;21.766;2023-06-19T05:13:58;10.55;;;8.45;;
35225;SDS011;21813;49.686;21.766;2023-06-19T05:16:24;11.70;;;8.48;;
35225;SDS011;21813;49.686;21.766;2023-06-19T05:19:48;8.77;;;7.82;;
35225;SDS011;21813;49.686;21.766;2023-06-19T05:22:13;9.10;;;7.93;;
35225;SDS011;21813;49.686;21.766;2023-06-19T05:24:44;9.30;;;8.25;;
35225;SDS011;21813;49.686;21.766;2023-06-19T05:27:10;9.65;;;8.65;;
35225;SDS011;21813;49.686;21.766;2023-06-19T05:29:38;10.80;;;8.57;;
35225;SDS011;21813;49.686;21.766;2023-06-19T05:32:03;9.70;;;7.97;;
35225;SDS011;21813;49.686;21.766;2023-06-19T05:34:30;14.40;;;9.27;;
35225;SDS011;21813;49.686;21.766;2023-06-19T05:36:56;9.20;;;8.27;;
35225;SDS011;21813;49.686;21.766;2023-06-19T05:39:24;10.27;;;8.32;;
35225;SDS011;21813;49.686;21.766;2023-06-19T05:41:50;8.90;;;7.97;;
35225;SDS011;21813;49.686;21.766;2023-06-19T05:44:17;10.25;;;8.65;;
35225;SDS011;21813;49.686;21.766;2023-06-19T05:46:44;11.35;;;8.68;;
35225;SDS011;21813;49.686;21.766;2023-06-19T05:49:11;12.18;;;8.45;;
35225;SDS011;21813;49.686;21.766;2023-06-19T05:51:37;8.73;;;7.65;;
35225;SDS011;21813;49.686;21.766;2023-06-19T05:54:08;9.73;;;8.13;;
35225;SDS011;21813;49.686;21.766;2023-06-19T05:56:35;16.42;;;8.15;;
35225;SDS011;21813;49.686;21.766;2023-06-19T05:59:03;10.15;;;8.77;;
35225;SDS011;21813;49.686;21.766;2023-06-19T06:01:29;9.77;;;7.97;;
35225;SDS011;21813;49.686;21.766;2023-06-19T06:03:56;9.77;;;8.27;;
35225;SDS011;21813;49.686;21.766;2023-06-19T06:06:25;11.57;;;8.40;;
35225;SDS011;21813;49.686;21.766;2023-06-19T06:08:52;9.38;;;8.45;;
35225;SDS011;21813;49.686;21.766;2023-06-19T06:11:20;9.90;;;8.73;;
35225;SDS011;21813;49.686;21.766;2023-06-19T06:13:55;13.68;;;8.02;;
35225;SDS011;21813;49.686;21.766;2023-06-19T06:16:21;13.55;;;8.07;;
35225;SDS011;21813;49.686;21.766;2023-06-19T06:18:49;10.82;;;8.40;;
35225;SDS011;21813;49.686;21.766;2023-06-19T06:21:14;10.52;;;7.70;;
35225;SDS011;21813;49.686;21.766;2023-06-19T06:23:43;14.52;;;8.05;;
35225;SDS011;21813;49.686;21.766;2023-06-19T06:29:29;11.20;;;8.05;;
35225;SDS011;21813;49.686;21.766;2023-06-19T06:32:04;10.15;;;9.05;;
35225;SDS011;21813;49.686;21.766;2023-06-19T06:34:31;11.73;;;8.98;;
35225;SDS011;21813;49.686;21.766;2023-06-19T06:36:59;11.52;;;8.50;;
35225;SDS011;21813;49.686;21.766;2023-06-19T06:39:25;13.65;;;8.82;;
35225;SDS011;21813;49.686;21.766;2023-06-19T06:41:52;16.75;;;9.07;;
35225;SDS011;21813;49.686;21.766;2023-06-19T06:44:24;10.82;;;9.15;;
35225;SDS011;21813;49.686;21.766;2023-06-19T06:46:50;10.40;;;9.30;;
35225;SDS011;21813;49.686;21.766;2023-06-19T06:49:16;13.07;;;10.40;;
35225;SDS011;21813;49.686;21.766;2023-06-19T06:51:43;10.52;;;9.38;;
35225;SDS011;21813;49.686;21.766;2023-06-19T06:54:09;13.77;;;9.85;;
35225;SDS011;21813;49.686;21.766;2023-06-19T06:56:48;11.90;;;9.57;;
35225;SDS011;21813;49.686;21.766;2023-06-19T06:59:21;12.32;;;9.80;;
35225;SDS011;21813;49.686;21.766;2023-06-19T07:01:55;10.00;;;8.77;;
35225;SDS011;21813;49.686;21.766;2023-06-19T07:04:27;10.13;;;7.75;;
35225;SDS011;21813;49.686;21.766;2023-06-19T07:06:56;9.35;;;8.45;;
35225;SDS011;21813;49.686;21.766;2023-06-19T07:09:23;9.75;;;8.50;;
35225;SDS011;21813;49.686;21.766;2023-06-19T07:11:49;12.18;;;9.30;;
35225;SDS011;21813;49.686;21.766;2023-06-19T07:14:15;10.52;;;8.98;;
35225;SDS011;21813;49.686;21.766;2023-06-19T07:16:48;10.45;;;8.65;;
35225;SDS011;21813;49.686;21.766;2023-06-19T07:19:21;11.27;;;9.13;;
35225;SDS011;21813;49.686;21.766;2023-06-19T07:21:50;10.07;;;8.52;;
35225;SDS011;21813;49.686;21.766;2023-06-19T07:24:41;13.48;;;9.25;;
35225;SDS011;21813;49.686;21.766;2023-06-19T07:27:07;9.55;;;8.65;;
35225;SDS011;21813;49.686;21.766;2023-06-19T07:29:33;10.00;;;8.82;;
35225;SDS011;21813;49.686;21.766;2023-06-19T07:32:12;9.00;;;8.10;;
35225;SDS011;21813;49.686;21.766;2023-06-19T07:34:38;9.13;;;7.88;;
35225;SDS011;21813;49.686;21.766;2023-06-19T07:37:16;10.23;;;8.68;;
35225;SDS011;21813;49.686;21.766;2023-06-19T07:39:49;11.00;;;8.73;;
35225;SDS011;21813;49.686;21.766;2023-06-19T07:42:16;8.70;;;7.67;;
35225;SDS011;21813;49.686;21.766;2023-06-19T07:44:43;10.10;;;8.55;;
35225;SDS011;21813;49.686;21.766;2023-06-19T07:47:15;8.25;;;7.38;;
35225;SDS011;21813;49.686;21.766;2023-06-19T07:49:43;8.70;;;7.70;;
35225;SDS011;21813;49.686;21.766;2023-06-19T07:52:09;7.50;;;6.70;;
35225;SDS011;21813;49.686;21.766;2023-06-19T07:54:35;9.30;;;8.20;;
35225;SDS011;21813;49.686;21.766;2023-06-19T07:57:02;8.98;;;7.68;;
35225;SDS011;21813;49.686;21.766;2023-06-19T07:59:30;9.00;;;7.05;;
35225;SDS011;21813;49.686;21.766;2023-06-19T08:02:42;9.20;;;7.47;;
35225;SDS011;21813;49.686;21.766;2023-06-19T08:05:15;7.57;;;6.68;;
35225;SDS011;21813;49.686;21.766;2023-06-19T08:07:43;18.40;;;7.95;;
35225;SDS011;21813;49.686;21.766;2023-06-19T08:10:09;11.50;;;7.10;;
35225;SDS011;21813;49.686;21.766;2023-06-19T08:12:36;10.00;;;6.75;;
35225;SDS011;21813;49.686;21.766;2023-06-19T08:15:22;10.25;;;6.70;;
35225;SDS011;21813;49.686;21.766;2023-06-19T08:17:53;9.45;;;6.82;;
35225;SDS011;21813;49.686;21.766;2023-06-19T08:20:22;7.82;;;6.07;;
35225;SDS011;21813;49.686;21.766;2023-06-19T08:22:51;10.63;;;7.53;;
35225;SDS011;21813;49.686;21.766;2023-06-19T08:25:17;10.35;;;7.18;;
35225;SDS011;21813;49.686;21.766;2023-06-19T08:27:48;8.45;;;6.07;;
35225;SDS011;21813;49.686;21.766;2023-06-19T08:30:25;10.02;;;6.90;;
35225;SDS011;21813;49.686;21.766;2023-06-19T08:33:01;7.00;;;6.18;;
35225;SDS011;21813;49.686;21.766;2023-06-19T08:35:30;10.77;;;6.93;;
35225;SDS011;21813;49.686;21.766;2023-06-19T08:37:56;11.38;;;6.65;;
35225;SDS011;21813;49.686;21.766;2023-06-19T08:40:22;9.63;;;6.22;;
35225;SDS011;21813;49.686;21.766;2023-06-19T08:42:49;7.93;;;6.40;;
35225;SDS011;21813;49.686;21.766;2023-06-19T08:45:15;8.05;;;6.57;;
35225;SDS011;21813;49.686;21.766;2023-06-19T08:47:42;7.28;;;6.15;;
35225;SDS011;21813;49.686;21.766;2023-06-19T08:50:08;8.20;;;7.40;;
35225;SDS011;21813;49.686;21.766;2023-06-19T08:53:01;6.53;;;5.93;;
35225;SDS011;21813;49.686;21.766;2023-06-19T08:55:26;7.50;;;5.90;;
35225;SDS011;21813;49.686;21.766;2023-06-19T08:57:54;7.38;;;6.43;;
35225;SDS011;21813;49.686;21.766;2023-06-19T09:00:27;6.97;;;6.28;;
35225;SDS011;21813;49.686;21.766;2023-06-19T09:03:33;6.57;;;5.90;;
35225;SDS011;21813;49.686;21.766;2023-06-19T09:06:02;12.15;;;6.30;;
35225;SDS011;21813;49.686;21.766;2023-06-19T09:08:30;7.15;;;5.95;;
35225;SDS011;21813;49.686;21.766;2023-06-19T09:11:02;7.82;;;6.47;;
35225;SDS011;21813;49.686;21.766;2023-06-19T09:13:30;8.60;;;6.50;;
35225;SDS011;21813;49.686;21.766;2023-06-19T09:16:04;6.53;;;5.93;;
35225;SDS011;21813;49.686;21.766;2023-06-19T09:18:49;7.05;;;6.35;;
35225;SDS011;21813;49.686;21.766;2023-06-19T09:21:26;7.97;;;5.95;;
35225;SDS011;21813;49.686;21.766;2023-06-19T09:23:54;7.95;;;6.25;;
35225;SDS011;21813;49.686;21.766;2023-06-19T09:26:25;6.93;;;6.22;;
35225;SDS011;21813;49.686;21.766;2023-06-19T09:28:56;6.28;;;5.68;;
35225;SDS011;21813;49.686;21.766;2023-06-19T09:31:33;7.10;;;6.40;;
35225;SDS011;21813;49.686;21.766;2023-06-19T09:33:59;6.50;;;5.80;;
35225;SDS011;21813;49.686;21.766;2023-06-19T09:36:35;6.75;;;5.75;;
35225;SDS011;21813;49.686;21.766;2023-06-19T09:39:13;6.07;;;5.47;;
35225;SDS011;21813;49.686;21.766;2023-06-19T09:41:52;5.05;;;4.55;;
35225;SDS011;21813;49.686;21.766;2023-06-19T09:44:42;7.20;;;5.25;;
35225;SDS011;21813;49.686;21.766;2023-06-19T09:47:23;8.23;;;5.82;;
35225;SDS011;21813;49.686;21.766;2023-06-19T09:50:05;7.30;;;5.35;;
35225;SDS011;21813;49.686;21.766;2023-06-19T09:52:45;7.50;;;5.13;;
35225;SDS011;21813;49.686;21.766;2023-06-19T09:55:23;5.88;;;5.35;;
35225;SDS011;21813;49.686;21.766;2023-06-19T09:57:56;6.60;;;5.28;;
35225;SDS011;21813;49.686;21.766;2023-06-19T10:00:22;7.32;;;5.90;;
35225;SDS011;21813;49.686;21.766;2023-06-19T10:03:02;7.63;;;5.93;;
35225;SDS011;21813;49.686;21.766;2023-06-19T10:05:45;6.82;;;5.32;;
35225;SDS011;21813;49.686;21.766;2023-06-19T10:08:51;8.23;;;5.90;;
35225;SDS011;21813;49.686;21.766;2023-06-19T10:15:28;7.25;;;5.43;;
35225;SDS011;21813;49.686;21.766;2023-06-19T10:18:04;6.18;;;5.25;;
35225;SDS011;21813;49.686;21.766;2023-06-19T10:23:01;6.10;;;5.50;;
35225;SDS011;21813;49.686;21.766;2023-06-19T10:25:47;6.55;;;5.25;;
35225;SDS011;21813;49.686;21.766;2023-06-19T10:28:34;5.97;;;5.22;;
35225;SDS011;21813;49.686;21.766;2023-06-19T10:31:03;6.95;;;5.43;;
35225;SDS011;21813;49.686;21.766;2023-06-19T10:33:42;6.83;;;6.13;;
35225;SDS011;21813;49.686;21.766;2023-06-19T10:36:19;6.30;;;5.70;;
35225;SDS011;21813;49.686;21.766;2023-06-19T10:38:51;6.18;;;5.57;;
35225;SDS011;21813;49.686;21.766;2023-06-19T10:41:19;6.10;;;5.50;;
35225;SDS011;21813;49.686;21.766;2023-06-19T10:44:08;5.30;;;4.80;;
35225;SDS011;21813;49.686;21.766;2023-06-19T10:46:38;5.35;;;4.82;;
35225;SDS011;21813;49.686;21.766;2023-06-19T10:49:06;5.40;;;4.80;;
35225;SDS011;21813;49.686;21.766;2023-06-19T10:51:36;6.75;;;5.35;;
35225;SDS011;21813;49.686;21.766;2023-06-19T10:54:04;4.93;;;4.43;;
35225;SDS011;21813;49.686;21.766;2023-06-19T10:56:32;5.03;;;4.63;;
35225;SDS011;21813;49.686;21.766;2023-06-19T10:59:02;6.70;;;4.68;;
35225;SDS011;21813;49.686;21.766;2023-06-19T11:01:38;5.75;;;4.53;;
35225;SDS011;21813;49.686;21.766;2023-06-19T11:04:55;6.25;;;5.40;;
35225;SDS011;21813;49.686;21.766;2023-06-19T11:07:22;5.05;;;4.55;;
35225;SDS011;21813;49.686;21.766;2023-06-19T11:09:50;6.10;;;5.13;;
35225;SDS011;21813;49.686;21.766;2023-06-19T11:12:20;5.60;;;5.10;;
35225;SDS011;21813;49.686;21.766;2023-06-19T11:14:47;6.13;;;5.47;;
35225;SDS011;21813;49.686;21.766;2023-06-19T11:17:15;5.88;;;5.22;;
35225;SDS011;21813;49.686;21.766;2023-06-19T11:19:43;5.60;;;4.63;;
35225;SDS011;21813;49.686;21.766;2023-06-19T11:22:21;5.45;;;4.82;;
35225;SDS011;21813;49.686;21.766;2023-06-19T11:24:47;5.20;;;4.70;;
35225;SDS011;21813;49.686;21.766;2023-06-19T11:27:23;4.43;;;4.00;;
35225;SDS011;21813;49.686;21.766;2023-06-19T11:29:58;4.78;;;3.92;;
35225;SDS011;21813;49.686;21.766;2023-06-19T11:32:44;4.85;;;4.45;;
35225;SDS011;21813;49.686;21.766;2023-06-19T11:35:11;5.57;;;4.05;;
35225;SDS011;21813;49.686;21.766;2023-06-19T11:37:41;7.97;;;4.28;;
35225;SDS011;21813;49.686;21.766;2023-06-19T11:40:12;4.55;;;4.15;;
35225;SDS011;21813;49.686;21.766;2023-06-19T11:42:52;4.78;;;3.95;;
35225;SDS011;21813;49.686;21.766;2023-06-19T11:45:21;5.50;;;4.60;;
35225;SDS011;21813;49.686;21.766;2023-06-19T11:47:49;4.40;;;4.00;;
35225;SDS011;21813;49.686;21.766;2023-06-19T11:50:33;4.57;;;4.07;;
35225;SDS011;21813;49.686;21.766;2023-06-19T11:53:10;4.72;;;4.28;;
35225;SDS011;21813;49.686;21.766;2023-06-19T11:56:07;4.70;;;4.10;;
35225;SDS011;21813;49.686;21.766;2023-06-19T11:58:32;23.85;;;8.23;;
35225;SDS011;21813;49.686;21.766;2023-06-19T12:01:00;18.83;;;5.90;;
35225;SDS011;21813;49.686;21.766;2023-06-19T12:03:25;4.60;;;4.07;;
35225;SDS011;21813;49.686;21.766;2023-06-19T12:05:53;5.25;;;4.28;;
35225;SDS011;21813;49.686;21.766;2023-06-19T12:08:18;4.88;;;4.25;;
35225;SDS011;21813;49.686;21.766;2023-06-19T12:10:44;5.15;;;4.65;;
35225;SDS011;21813;49.686;21.766;2023-06-19T12:13:10;4.60;;;4.20;;
35225;SDS011;21813;49.686;21.766;2023-06-19T12:15:37;5.28;;;4.78;;
35225;SDS011;21813;49.686;21.766;2023-06-19T12:18:03;5.05;;;4.60;;
35225;SDS011;21813;49.686;21.766;2023-06-19T12:20:29;6.75;;;4.00;;
35225;SDS011;21813;49.686;21.766;2023-06-19T12:22:55;4.72;;;4.32;;
35225;SDS011;21813;49.686;21.766;2023-06-19T12:25:21;5.00;;;4.45;;
35225;SDS011;21813;49.686;21.766;2023-06-19T12:27:46;6.25;;;5.00;;
35225;SDS011;21813;49.686;21.766;2023-06-19T12:30:15;5.38;;;4.88;;
35225;SDS011;21813;49.686;21.766;2023-06-19T12:32:41;6.20;;;4.90;;
35225;SDS011;21813;49.686;21.766;2023-06-19T12:35:07;5.63;;;4.80;;
35225;SDS011;21813;49.686;21.766;2023-06-19T12:37:33;5.38;;;4.68;;
35225;SDS011;21813;49.686;21.766;2023-06-19T12:39:59;14.65;;;5.00;;
35225;SDS011;21813;49.686;21.766;2023-06-19T12:42:25;6.30;;;4.40;;
35225;SDS011;21813;49.686;21.766;2023-06-19T12:44:52;5.15;;;4.20;;
35225;SDS011;21813;49.686;21.766;2023-06-19T12:47:17;4.85;;;4.38;;
35225;SDS011;21813;49.686;21.766;2023-06-19T12:49:46;7.47;;;4.68;;
35225;SDS011;21813;49.686;21.766;2023-06-19T12:52:11;4.80;;;4.20;;
35225;SDS011;21813;49.686;21.766;2023-06-19T12:54:37;5.35;;;4.00;;
35225;SDS011;21813;49.686;21.766;2023-06-19T12:57:05;5.47;;;4.68;;
35225;SDS011;21813;49.686;21.766;2023-06-19T12:59:31;5.18;;;4.15;;
35225;SDS011;21813;49.686;21.766;2023-06-19T13:02:00;3.92;;;3.58;;
35225;SDS011;21813;49.686;21.766;2023-06-19T13:04:25;7.78;;;4.50;;
35225;SDS011;21813;49.686;21.766;2023-06-19T13:06:53;4.95;;;4.32;;
35225;SDS011;21813;49.686;21.766;2023-06-19T13:09:18;9.45;;;4.38;;
35225;SDS011;21813;49.686;21.766;2023-06-19T13:11:46;4.63;;;4.22;;
35225;SDS011;21813;49.686;21.766;2023-06-19T13:14:12;5.72;;;4.57;;
35225;SDS011;21813;49.686;21.766;2023-06-19T13:16:38;5.88;;;4.88;;
35225;SDS011;21813;49.686;21.766;2023-06-19T13:19:04;6.20;;;4.60;;
35225;SDS011;21813;49.686;21.766;2023-06-19T13:21:30;6.40;;;4.82;;
35225;SDS011;21813;49.686;21.766;2023-06-19T13:23:55;5.82;;;4.28;;
35225;SDS011;21813;49.686;21.766;2023-06-19T13:26:31;8.20;;;4.40;;
35225;SDS011;21813;49.686;21.766;2023-06-19T13:28:59;5.65;;;4.70;;
35225;SDS011;21813;49.686;21.766;2023-06-19T13:31:30;7.65;;;4.93;;
35225;SDS011;21813;49.686;21.766;2023-06-19T13:33:56;5.80;;;5.15;;
35225;SDS011;21813;49.686;21.766;2023-06-19T13:36:22;6.78;;;4.93;;
35225;SDS011;21813;49.686;21.766;2023-06-19T13:38:49;6.60;;;4.90;;
35225;SDS011;21813;49.686;21.766;2023-06-19T13:41:16;5.63;;;5.03;;
35225;SDS011;21813;49.686;21.766;2023-06-19T13:43:42;5.47;;;4.80;;
35225;SDS011;21813;49.686;21.766;2023-06-19T13:46:11;5.78;;;4.63;;
35225;SDS011;21813;49.686;21.766;2023-06-19T13:48:37;5.25;;;4.50;;
35225;SDS011;21813;49.686;21.766;2023-06-19T13:51:05;5.40;;;4.90;;
35225;SDS011;21813;49.686;21.766;2023-06-19T13:53:31;5.78;;;4.57;;
35225;SDS011;21813;49.686;21.766;2023-06-19T13:56:05;5.43;;;4.68;;
35225;SDS011;21813;49.686;21.766;2023-06-19T13:58:34;5.88;;;4.40;;
35225;SDS011;21813;49.686;21.766;2023-06-19T14:01:00;7.70;;;5.40;;
35225;SDS011;21813;49.686;21.766;2023-06-19T14:03:26;5.85;;;4.70;;
35225;SDS011;21813;49.686;21.766;2023-06-19T14:05:57;6.95;;;4.47;;
35225;SDS011;21813;49.686;21.766;2023-06-19T14:08:32;5.22;;;4.47;;
35225;SDS011;21813;49.686;21.766;2023-06-19T14:11:11;6.50;;;4.68;;
35225;SDS011;21813;49.686;21.766;2023-06-19T14:13:39;9.77;;;4.68;;
35225;SDS011;21813;49.686;21.766;2023-06-19T14:16:48;5.68;;;4.28;;
35225;SDS011;21813;49.686;21.766;2023-06-19T14:19:15;4.22;;;3.83;;
35225;SDS011;21813;49.686;21.766;2023-06-19T14:21:40;5.35;;;4.85;;
35225;SDS011;21813;49.686;21.766;2023-06-19T14:24:08;5.60;;;4.75;;
35225;SDS011;21813;49.686;21.766;2023-06-19T14:26:33;4.90;;;4.32;;
35225;SDS011;21813;49.686;21.766;2023-06-19T14:28:59;4.82;;;4.32;;
35225;SDS011;21813;49.686;21.766;2023-06-19T14:31:25;5.03;;;4.55;;
35225;SDS011;21813;49.686;21.766;2023-06-19T14:33:53;4.90;;;4.50;;
35225;SDS011;21813;49.686;21.766;2023-06-19T14:36:19;5.80;;;4.85;;
35225;SDS011;21813;49.686;21.766;2023-06-19T14:38:49;5.28;;;4.72;;
35225;SDS011;21813;49.686;21.766;2023-06-19T14:47:34;5.30;;;4.80;;
35225;SDS011;21813;49.686;21.766;2023-06-19T14:50:00;7.28;;;4.88;;
35225;SDS011;21813;49.686;21.766;2023-06-19T14:52:28;6.75;;;5.05;;
35225;SDS011;21813;49.686;21.766;2023-06-19T14:54:57;6.95;;;3.95;;
35225;SDS011;21813;49.686;21.766;2023-06-19T14:57:24;6.47;;;4.88;;
35225;SDS011;21813;49.686;21.766;2023-06-19T14:59:56;5.32;;;4.82;;
35225;SDS011;21813;49.686;21.766;2023-06-19T15:02:22;4.63;;;4.22;;
35225;SDS011;21813;49.686;21.766;2023-06-19T15:04:59;6.85;;;5.13;;
35225;SDS011;21813;49.686;21.766;2023-06-19T15:07:24;4.65;;;4.25;;
35225;SDS011;21813;49.686;21.766;2023-06-19T15:09:52;5.68;;;4.65;;
35225;SDS011;21813;49.686;21.766;2023-06-19T15:12:18;8.55;;;4.82;;